Aviation Digital Data Service (ADDS)

Output produced by METARs form (0418 UTC 19 February 2019)
found at http://www.aviationweather.gov/metar/data/
 
METAR text: KPSP 190353Z 33004KT 10SM CLR 10/M02 A3003 RMK AO2 SLP170 T01001017
Conditions at: KPSP (PALM SPRINGS , CA, US) observed 0353 UTC 19 February 2019
Temperature: 10.0°C (50°F)
Dewpoint: -1.7°C (29°F) [RH = 44%]
Pressure (altimeter): 30.03 inches Hg (1017.0 mb)
[Sea-level pressure: 1017.0 mb]
Winds: from the NNW (330 degrees) at 5 MPH (4 knots; 2.1 m/s)
Visibility: 10 or more miles (16+ km)
Ceiling: at least 12,000 feet AGL
Clouds: sky clear below 12,000 feet AGL
Weather: no significant weather observed at this time

METAR text: KPSP 190253Z 34005KT 10SM CLR 11/M01 A3002 RMK AO2 SLP166 T01061006 53013
Conditions at: KPSP (PALM SPRINGS , CA, US) observed 0253 UTC 19 February 2019
Temperature: 10.6°C (51°F)
Dewpoint: -0.6°C (31°F) [RH = 46%]
Pressure (altimeter): 30.02 inches Hg (1016.7 mb)
[Sea-level pressure: 1016.6 mb]
Winds: from the NNW (340 degrees) at 6 MPH (5 knots; 2.6 m/s)
Visibility: 10 or more miles (16+ km)
Ceiling: at least 12,000 feet AGL
Clouds: sky clear below 12,000 feet AGL
Weather: no significant weather observed at this time

METAR text: KPSP 190153Z 31006KT 10SM CLR 12/M02 A3000 RMK AO2 SLP161 T01171017
Conditions at: KPSP (PALM SPRINGS , CA, US) observed 0153 UTC 19 February 2019
Temperature: 11.7°C (53°F)
Dewpoint: -1.7°C (29°F) [RH = 39%]
Pressure (altimeter): 30.00 inches Hg (1016.0 mb)
[Sea-level pressure: 1016.1 mb]
Winds: from the NW (310 degrees) at 7 MPH (6 knots; 3.1 m/s)
Visibility: 10 or more miles (16+ km)
Ceiling: at least 12,000 feet AGL
Clouds: sky clear below 12,000 feet AGL
Weather: no significant weather observed at this time

METAR text: KPSP 190053Z 30007KT 10SM CLR 13/M02 A2998 RMK AO2 SLP154 T01281022
Conditions at: KPSP (PALM SPRINGS , CA, US) observed 0053 UTC 19 February 2019
Temperature: 12.8°C (55°F)
Dewpoint: -2.2°C (28°F) [RH = 35%]
Pressure (altimeter): 29.98 inches Hg (1015.3 mb)
[Sea-level pressure: 1015.4 mb]
Winds: from the WNW (300 degrees) at 8 MPH (7 knots; 3.6 m/s)
Visibility: 10 or more miles (16+ km)
Ceiling: at least 12,000 feet AGL
Clouds: sky clear below 12,000 feet AGL
Weather: no significant weather observed at this time

METAR text: KPSP 182353Z 32010KT 10SM SCT100 14/M01 A2998 RMK AO2 WSHFT 2257 SLP153 T01391011 10150 20111 56009
Conditions at: KPSP (PALM SPRINGS , CA, US) observed 2353 UTC 18 February 2019
Temperature: 13.9°C (57°F)
Dewpoint: -1.1°C (30°F) [RH = 35%]
Pressure (altimeter): 29.98 inches Hg (1015.3 mb)
[Sea-level pressure: 1015.3 mb]
Winds: from the NW (320 degrees) at 12 MPH (10 knots; 5.1 m/s)
Visibility: 10 or more miles (16+ km)
Ceiling: at least 12,000 feet AGL
Clouds: scattered clouds at 10000 feet AGL
Weather: no significant weather observed at this time

METAR text: KPSP 182317Z 32008KT 10SM CLR 13/M01 A2998 RMK AO2 WSHFT 2257 T01331011
Conditions at: KPSP (PALM SPRINGS , CA, US) observed 2317 UTC 18 February 2019
Temperature: 13.3°C (56°F)
Dewpoint: -1.1°C (30°F) [RH = 37%]
Pressure (altimeter): 29.98 inches Hg (1015.3 mb)
Winds: from the NW (320 degrees) at 9 MPH (8 knots; 4.1 m/s)
Visibility: 10 or more miles (16+ km)
Ceiling: at least 12,000 feet AGL
Clouds: sky clear below 12,000 feet AGL
Weather: no significant weather observed at this time

METAR text: KPSP 182253Z 31011KT 10SM BKN080 14/M02 A2998 RMK AO2 SLP153 T01391022
Conditions at: KPSP (PALM SPRINGS , CA, US) observed 2253 UTC 18 February 2019
Temperature: 13.9°C (57°F)
Dewpoint: -2.2°C (28°F) [RH = 33%]
Pressure (altimeter): 29.98 inches Hg (1015.3 mb)
[Sea-level pressure: 1015.3 mb]
Winds: from the NW (310 degrees) at 13 MPH (11 knots; 5.7 m/s)
Visibility: 10 or more miles (16+ km)
Ceiling: 8000 feet AGL
Clouds: broken clouds at 8000 feet AGL
Weather: no significant weather observed at this time

METAR text: KPSP 182153Z VRB06KT 10SM SCT085 13/00 A2999 RMK AO2 SLP155 T01330000
Conditions at: KPSP (PALM SPRINGS , CA, US) observed 2153 UTC 18 February 2019
Temperature: 13.3°C (56°F)
Dewpoint: 0.0°C (32°F) [RH = 40%]
Pressure (altimeter): 29.99 inches Hg (1015.7 mb)
[Sea-level pressure: 1015.5 mb]
Winds: variable direction winds at 7 MPH (6 knots; 3.1 m/s)
Visibility: 10 or more miles (16+ km)
Ceiling: at least 12,000 feet AGL
Clouds: scattered clouds at 8500 feet AGL
Weather: no significant weather observed at this time

METAR text: KPSP 182053Z VRB05KT 10SM SCT100 13/M02 A3000 RMK AO2 SLP162 T01331022 58015
Conditions at: KPSP (PALM SPRINGS , CA, US) observed 2053 UTC 18 February 2019
Temperature: 13.3°C (56°F)
Dewpoint: -2.2°C (28°F) [RH = 34%]
Pressure (altimeter): 30.00 inches Hg (1016.0 mb)
[Sea-level pressure: 1016.2 mb]
Winds: variable direction winds at 6 MPH (5 knots; 2.6 m/s)
Visibility: 10 or more miles (16+ km)
Ceiling: at least 12,000 feet AGL
Clouds: scattered clouds at 10000 feet AGL
Weather: no significant weather observed at this time

METAR text: KPSP 181953Z 21004KT 10SM FEW070 14/M01 A3002 RMK AO2 SLP169 T01441011
Conditions at: KPSP (PALM SPRINGS , CA, US) observed 1953 UTC 18 February 2019
Temperature: 14.4°C (58°F)
Dewpoint: -1.1°C (30°F) [RH = 34%]
Pressure (altimeter): 30.02 inches Hg (1016.7 mb)
[Sea-level pressure: 1016.9 mb]
Winds: from the SSW (210 degrees) at 5 MPH (4 knots; 2.1 m/s)
Visibility: 10 or more miles (16+ km)
Ceiling: at least 12,000 feet AGL
Clouds: few clouds at 7000 feet AGL
Weather: no significant weather observed at this time

METAR text: KPSP 181853Z VRB04KT 10SM SCT100 13/02 A3004 RMK AO2 SLP175 T01280022
Conditions at: KPSP (PALM SPRINGS , CA, US) observed 1853 UTC 18 February 2019
Temperature: 12.8°C (55°F)
Dewpoint: 2.2°C (36°F) [RH = 48%]
Pressure (altimeter): 30.04 inches Hg (1017.4 mb)
[Sea-level pressure: 1017.5 mb]
Winds: variable direction winds at 5 MPH (4 knots; 2.1 m/s)
Visibility: 10 or more miles (16+ km)
Ceiling: at least 12,000 feet AGL
Clouds: scattered clouds at 10000 feet AGL
Weather: no significant weather observed at this time

METAR text: KPSP 181753Z 00000KT 10SM SCT100 12/02 A3005 RMK AO2 SLP177 T01170022 10117 20044 51014
Conditions at: KPSP (PALM SPRINGS , CA, US) observed 1753 UTC 18 February 2019
Temperature: 11.7°C (53°F)
Dewpoint: 2.2°C (36°F) [RH = 52%]
Pressure (altimeter): 30.05 inches Hg (1017.7 mb)
[Sea-level pressure: 1017.7 mb]
Winds: calm
Visibility: 10 or more miles (16+ km)
Ceiling: at least 12,000 feet AGL
Clouds: scattered clouds at 10000 feet AGL
Weather: no significant weather observed at this time

METAR text: KPSP 181653Z 00000KT 10SM CLR 10/03 A3005 RMK AO2 SLP176 T01000033
Conditions at: KPSP (PALM SPRINGS , CA, US) observed 1653 UTC 18 February 2019
Temperature: 10.0°C (50°F)
Dewpoint: 3.3°C (38°F) [RH = 63%]
Pressure (altimeter): 30.05 inches Hg (1017.7 mb)
[Sea-level pressure: 1017.6 mb]
Winds: calm
Visibility: 10 or more miles (16+ km)
Ceiling: at least 12,000 feet AGL
Clouds: sky clear below 12,000 feet AGL
Weather: no significant weather observed at this time

METAR text: KPSP 181553Z 00000KT 10SM CLR 08/04 A3003 RMK AO2 SLP171 T00780044
Conditions at: KPSP (PALM SPRINGS , CA, US) observed 1553 UTC 18 February 2019
Temperature: 7.8°C (46°F)
Dewpoint: 4.4°C (40°F) [RH = 79%]
Pressure (altimeter): 30.03 inches Hg (1017.0 mb)
[Sea-level pressure: 1017.1 mb]
Winds: calm
Visibility: 10 or more miles (16+ km)
Ceiling: at least 12,000 feet AGL
Clouds: sky clear below 12,000 feet AGL
Weather: no significant weather observed at this time

METAR text: KPSP 181453Z 00000KT 10SM CLR 06/04 A3001 RMK AO2 SLP163 T00610039 53011
Conditions at: KPSP (PALM SPRINGS , CA, US) observed 1453 UTC 18 February 2019
Temperature: 6.1°C (43°F)
Dewpoint: 3.9°C (39°F) [RH = 86%]
Pressure (altimeter): 30.01 inches Hg (1016.3 mb)
[Sea-level pressure: 1016.3 mb]
Winds: calm
Visibility: 10 or more miles (16+ km)
Ceiling: at least 12,000 feet AGL
Clouds: sky clear below 12,000 feet AGL
Weather: no significant weather observed at this time

METAR text: KPSP 181353Z 00000KT 10SM CLR 06/04 A2999 RMK AO2 SLP158 T00560044
Conditions at: KPSP (PALM SPRINGS , CA, US) observed 1353 UTC 18 February 2019
Temperature: 5.6°C (42°F)
Dewpoint: 4.4°C (40°F) [RH = 92%]
Pressure (altimeter): 29.99 inches Hg (1015.7 mb)
[Sea-level pressure: 1015.8 mb]
Winds: calm
Visibility: 10 or more miles (16+ km)
Ceiling: at least 12,000 feet AGL
Clouds: sky clear below 12,000 feet AGL
Weather: no significant weather observed at this time

METAR text: KPSP 181253Z AUTO 27003KT 10SM CLR 06/05 A2998 RMK AO2 SLP153 T00610050
Conditions at: KPSP (PALM SPRINGS , CA, US) observed 1253 UTC 18 February 2019
Temperature: 6.1°C (43°F)
Dewpoint: 5.0°C (41°F) [RH = 93%]
Pressure (altimeter): 29.98 inches Hg (1015.3 mb)
[Sea-level pressure: 1015.3 mb]
Winds: from the W (270 degrees) at 3 MPH (3 knots; 1.5 m/s)
Visibility: 10 or more miles (16+ km)
Ceiling: at least 12,000 feet AGL
Clouds: sky clear below 12,000 feet AGL
Weather: automated observation with no human augmentation;
there may or may not be significant weather present at this time

METAR text: KPSP 181153Z AUTO 04005KT 10SM CLR 06/05 A2997 RMK AO2 SLP152 60011 70014 T00610050 10100 20061 53002
Conditions at: KPSP (PALM SPRINGS , CA, US) observed 1153 UTC 18 February 2019
Temperature: 6.1°C (43°F)
Dewpoint: 5.0°C (41°F) [RH = 93%]
Pressure (altimeter): 29.97 inches Hg (1015.0 mb)
[Sea-level pressure: 1015.2 mb]
Winds: from the NE (40 degrees) at 6 MPH (5 knots; 2.6 m/s)
Visibility: 10 or more miles (16+ km)
Ceiling: at least 12,000 feet AGL
Clouds: sky clear below 12,000 feet AGL
Weather: automated observation with no human augmentation;
there may or may not be significant weather present at this time

METAR text: KPSP 181053Z AUTO 21003KT 10SM FEW070 06/06 A2997 RMK AO2 SLP150 T00610056
Conditions at: KPSP (PALM SPRINGS , CA, US) observed 1053 UTC 18 February 2019
Temperature: 6.1°C (43°F)
Dewpoint: 5.6°C (42°F) [RH = 97%]
Pressure (altimeter): 29.97 inches Hg (1015.0 mb)
[Sea-level pressure: 1015.0 mb]
Winds: from the SSW (210 degrees) at 3 MPH (3 knots; 1.5 m/s)
Visibility: 10 or more miles (16+ km)
Ceiling: at least 12,000 feet AGL
Clouds: few clouds at 7000 feet AGL
Weather: automated observation with no human augmentation;
there may or may not be significant weather present at this time

METAR text: KPSP 180953Z AUTO 34004KT 10SM BKN060 BKN075 07/06 A2997 RMK AO2 RAB19E32 SLP150 P0000 T00720056
Conditions at: KPSP (PALM SPRINGS , CA, US) observed 0953 UTC 18 February 2019
Temperature: 7.2°C (45°F)
Dewpoint: 5.6°C (42°F) [RH = 90%]
Pressure (altimeter): 29.97 inches Hg (1015.0 mb)
[Sea-level pressure: 1015.0 mb]
Winds: from the NNW (340 degrees) at 5 MPH (4 knots; 2.1 m/s)
Visibility: 10 or more miles (16+ km)
Ceiling: 6000 feet AGL
Clouds: broken clouds at 6000 feet AGL
broken clouds at 7500 feet AGL
Weather: automated observation with no human augmentation;
there may or may not be significant weather present at this time

METAR text: KPSP 180853Z AUTO 17003KT 10SM FEW065 BKN080 BKN100 07/06 A2997 RMK AO2 RAE29 SLP149 P0003 60011 T00720056 50010
Conditions at: KPSP (PALM SPRINGS , CA, US) observed 0853 UTC 18 February 2019
Temperature: 7.2°C (45°F)
Dewpoint: 5.6°C (42°F) [RH = 90%]
Pressure (altimeter): 29.97 inches Hg (1015.0 mb)
[Sea-level pressure: 1014.9 mb]
Winds: from the S (170 degrees) at 3 MPH (3 knots; 1.5 m/s)
Visibility: 10 or more miles (16+ km)
Ceiling: 8000 feet AGL
Clouds: few clouds at 6500 feet AGL
broken clouds at 8000 feet AGL
broken clouds at 10000 feet AGL
Weather: automated observation with no human augmentation;
there may or may not be significant weather present at this time

METAR text: KPSP 180753Z AUTO 22003KT 7SM -RA OVC034 08/06 A2997 RMK AO2 RAB0656 SLP151 P0008 T00830061 401720083
Conditions at: KPSP (PALM SPRINGS , CA, US) observed 0753 UTC 18 February 2019
Temperature: 8.3°C (47°F)
Dewpoint: 6.1°C (43°F) [RH = 86%]
Pressure (altimeter): 29.97 inches Hg (1015.0 mb)
[Sea-level pressure: 1015.1 mb]
Winds: from the SW (220 degrees) at 3 MPH (3 knots; 1.5 m/s)
Visibility: 7 miles (11 km)
Ceiling: 3400 feet AGL
Clouds: overcast cloud deck at 3400 feet AGL
Weather: -RA  (light rain)

METAR text: KPSP 180653Z AUTO 20007KT 10SM BKN050 OVC060 09/06 A2995 RMK AO2 RAB14E42 SLP143 P0000 T00940056
Conditions at: KPSP (PALM SPRINGS , CA, US) observed 0653 UTC 18 February 2019
Temperature: 9.4°C (49°F)
Dewpoint: 5.6°C (42°F) [RH = 77%]
Pressure (altimeter): 29.95 inches Hg (1014.3 mb)
[Sea-level pressure: 1014.3 mb]
Winds: from the SSW (200 degrees) at 8 MPH (7 knots; 3.6 m/s)
Visibility: 10 or more miles (16+ km)
Ceiling: 5000 feet AGL
Clouds: broken clouds at 5000 feet AGL
overcast cloud deck at 6000 feet AGL
Weather: automated observation with no human augmentation;
there may or may not be significant weather present at this time

METAR text: KPSP 180553Z 36004KT 10SM FEW060 OVC085 09/05 A2994 RMK AO2 SLP139 60003 T00940050 10122 20089 53005
Conditions at: KPSP (PALM SPRINGS , CA, US) observed 0553 UTC 18 February 2019
Temperature: 9.4°C (49°F)
Dewpoint: 5.0°C (41°F) [RH = 74%]
Pressure (altimeter): 29.94 inches Hg (1014.0 mb)
[Sea-level pressure: 1013.9 mb]
Winds: from the N (360 degrees) at 5 MPH (4 knots; 2.1 m/s)
Visibility: 10 or more miles (16+ km)
Ceiling: 8500 feet AGL
Clouds: few clouds at 6000 feet AGL
overcast cloud deck at 8500 feet AGL
Weather: no significant weather observed at this time

METAR text: KPSP 180453Z 12005KT 10SM SCT070 OVC100 09/05 A2992 RMK AO2 SLP134 T00940050
Conditions at: KPSP (PALM SPRINGS , CA, US) observed 0453 UTC 18 February 2019
Temperature: 9.4°C (49°F)
Dewpoint: 5.0°C (41°F) [RH = 74%]
Pressure (altimeter): 29.92 inches Hg (1013.3 mb)
[Sea-level pressure: 1013.4 mb]
Winds: from the ESE (120 degrees) at 6 MPH (5 knots; 2.6 m/s)
Visibility: 10 or more miles (16+ km)
Ceiling: 10000 feet AGL
Clouds: scattered clouds at 7000 feet AGL
overcast cloud deck at 10000 feet AGL
Weather: no significant weather observed at this time

METAR text: KPSP 180353Z 00000KT 10SM BKN060 BKN090 09/06 A2992 RMK AO2 RAB00E22 SLP133 P0001 T00940061
Conditions at: KPSP (PALM SPRINGS , CA, US) observed 0353 UTC 18 February 2019
Temperature: 9.4°C (49°F)
Dewpoint: 6.1°C (43°F) [RH = 80%]
Pressure (altimeter): 29.92 inches Hg (1013.3 mb)
[Sea-level pressure: 1013.3 mb]
Winds: calm
Visibility: 10 or more miles (16+ km)
Ceiling: 6000 feet AGL
Clouds: broken clouds at 6000 feet AGL
broken clouds at 9000 feet AGL
Weather: no significant weather observed at this time

METAR text: KPSP 180253Z 16006KT 10SM BKN070 OVC085 09/06 A2992 RMK AO2 RAE46 SLP134 P0000 60002 T00940056 53006
Conditions at: KPSP (PALM SPRINGS , CA, US) observed 0253 UTC 18 February 2019
Temperature: 9.4°C (49°F)
Dewpoint: 5.6°C (42°F) [RH = 77%]
Pressure (altimeter): 29.92 inches Hg (1013.3 mb)
[Sea-level pressure: 1013.4 mb]
Winds: from the SSE (160 degrees) at 7 MPH (6 knots; 3.1 m/s)
Visibility: 10 or more miles (16+ km)
Ceiling: 7000 feet AGL
Clouds: broken clouds at 7000 feet AGL
overcast cloud deck at 8500 feet AGL
Weather: no significant weather observed at this time

METAR text: KPSP 180153Z 02010KT 9SM -RA BKN039 BKN046 OVC090 10/07 A2991 RMK AO2 RAB06 SLP129 P0002 T01000067
Conditions at: KPSP (PALM SPRINGS , CA, US) observed 0153 UTC 18 February 2019
Temperature: 10.0°C (50°F)
Dewpoint: 6.7°C (44°F) [RH = 80%]
Pressure (altimeter): 29.91 inches Hg (1013.0 mb)
[Sea-level pressure: 1012.9 mb]
Winds: from the NNE (20 degrees) at 12 MPH (10 knots; 5.1 m/s)
Visibility: 9 miles (14 km)
Ceiling: 3900 feet AGL
Clouds: broken clouds at 3900 feet AGL
broken clouds at 4600 feet AGL
overcast cloud deck at 9000 feet AGL
Weather: -RA  (light rain)

METAR text: KPSP 180053Z 00000KT 10SM FEW046 OVC070 12/04 A2990 RMK AO2 RAB19E44 SLP126 P0000 T01170044
Conditions at: KPSP (PALM SPRINGS , CA, US) observed 0053 UTC 18 February 2019
Temperature: 11.7°C (53°F)
Dewpoint: 4.4°C (40°F) [RH = 61%]
Pressure (altimeter): 29.90 inches Hg (1012.6 mb)
[Sea-level pressure: 1012.6 mb]
Winds: calm
Visibility: 10 or more miles (16+ km)
Ceiling: 7000 feet AGL
Clouds: few clouds at 4600 feet AGL
overcast cloud deck at 7000 feet AGL
Weather: no significant weather observed at this time

METAR text: KPSP 172353Z 01010KT 10SM FEW055 FEW070 BKN080 13/03 A2991 RMK AO2 RAB07E20 SLP128 P0000 60000 T01280033 10172 20128 56019
Conditions at: KPSP (PALM SPRINGS , CA, US) observed 2353 UTC 17 February 2019
Temperature: 12.8°C (55°F)
Dewpoint: 3.3°C (38°F) [RH = 52%]
Pressure (altimeter): 29.91 inches Hg (1013.0 mb)
[Sea-level pressure: 1012.8 mb]
Winds: from the N (10 degrees) at 12 MPH (10 knots; 5.1 m/s)
Visibility: 10 or more miles (16+ km)
Ceiling: 8000 feet AGL
Clouds: few clouds at 5500 feet AGL
few clouds at 7000 feet AGL
broken clouds at 8000 feet AGL
Weather: no significant weather observed at this time

METAR text: KPSP 172253Z 25007KT 220V300 10SM BLDU OVC060 14/02 A2993 RMK AO2 SLP137 T01390017
Conditions at: KPSP (PALM SPRINGS , CA, US) observed 2253 UTC 17 February 2019
Temperature: 13.9°C (57°F)
Dewpoint: 1.7°C (35°F) [RH = 43%]
Pressure (altimeter): 29.93 inches Hg (1013.6 mb)
[Sea-level pressure: 1013.7 mb]
Winds: from the WSW (250 degrees) at 8 MPH (7 knots; 3.6 m/s)
Visibility: 10 or more miles (16+ km)
Ceiling: 6000 feet AGL
Clouds: overcast cloud deck at 6000 feet AGL
Weather: BLDU  (blowing dust)

METAR text: KPSP 172153Z 04005G15KT 10SM BLDU BKN095 15/00 A2993 RMK AO2 SLP136 T01500000
Conditions at: KPSP (PALM SPRINGS , CA, US) observed 2153 UTC 17 February 2019
Temperature: 15.0°C (59°F)
Dewpoint: 0.0°C (32°F) [RH = 36%]
Pressure (altimeter): 29.93 inches Hg (1013.6 mb)
[Sea-level pressure: 1013.6 mb]
Winds: from the NE (40 degrees) at 6 MPH (5 knots; 2.6 m/s)
gusting to 17 MPH (15 knots; 7.7 m/s)
Visibility: 10 or more miles (16+ km)
Ceiling: 9500 feet AGL
Clouds: broken clouds at 9500 feet AGL
Weather: BLDU  (blowing dust)

METAR text: KPSP 172139Z 05004G20KT 10SM BLDU FEW026 FEW070 BKN090 14/M01 A2994 RMK AO2 T01441006
Conditions at: KPSP (PALM SPRINGS , CA, US) observed 2139 UTC 17 February 2019
Temperature: 14.4°C (58°F)
Dewpoint: -0.6°C (31°F) [RH = 36%]
Pressure (altimeter): 29.94 inches Hg (1014.0 mb)
Winds: from the NE (50 degrees) at 5 MPH (4 knots; 2.1 m/s)
gusting to 23 MPH (20 knots; 10.3 m/s)
Visibility: 10 or more miles (16+ km)
Ceiling: 9000 feet AGL
Clouds: few clouds at 2600 feet AGL
few clouds at 7000 feet AGL
broken clouds at 9000 feet AGL
Weather: BLDU  (blowing dust)

METAR text: KPSP 172053Z VRB06KT 9SM BLDU SCT070 OVC120 15/M01 A2996 RMK AO2 SLP146 T01501006 58018
Conditions at: KPSP (PALM SPRINGS , CA, US) observed 2053 UTC 17 February 2019
Temperature: 15.0°C (59°F)
Dewpoint: -0.6°C (31°F) [RH = 34%]
Pressure (altimeter): 29.96 inches Hg (1014.6 mb)
[Sea-level pressure: 1014.6 mb]
Winds: variable direction winds at 7 MPH (6 knots; 3.1 m/s)
Visibility: 9 miles (14 km)
Ceiling: 12000 feet AGL
Clouds: scattered clouds at 7000 feet AGL
overcast cloud deck at 12000 feet AGL
Weather: BLDU  (blowing dust)

METAR text: KPSP 171953Z VRB06G15KT 10SM CLR 17/M02 A2999 RMK AO2 SLP154 T01671017
Conditions at: KPSP (PALM SPRINGS , CA, US) observed 1953 UTC 17 February 2019
Temperature: 16.7°C (62°F)
Dewpoint: -1.7°C (29°F) [RH = 28%]
Pressure (altimeter): 29.99 inches Hg (1015.7 mb)
[Sea-level pressure: 1015.4 mb]
Winds: variable direction winds at 7 MPH (6 knots; 3.1 m/s)
gusting to 17 MPH (15 knots; 7.7 m/s)
Visibility: 10 or more miles (16+ km)
Ceiling: at least 12,000 feet AGL
Clouds: sky clear below 12,000 feet AGL
Weather: no significant weather observed at this time

METAR text: KPSP 171940Z 01009KT 10SM CLR 17/M03 A3000 RMK AO2 T01671028
Conditions at: KPSP (PALM SPRINGS , CA, US) observed 1940 UTC 17 February 2019
Temperature: 16.7°C (62°F)
Dewpoint: -2.8°C (27°F) [RH = 26%]
Pressure (altimeter): 30.00 inches Hg (1016.0 mb)
Winds: from the N (10 degrees) at 10 MPH (9 knots; 4.6 m/s)
Visibility: 10 or more miles (16+ km)
Ceiling: at least 12,000 feet AGL
Clouds: sky clear below 12,000 feet AGL
Weather: no significant weather observed at this time

METAR text: KPSP 171853Z VRB05KT 10SM CLR 16/M02 A3001 RMK AO2 SLP163 T01561022
Conditions at: KPSP (PALM SPRINGS , CA, US) observed 1853 UTC 17 February 2019
Temperature: 15.6°C (60°F)
Dewpoint: -2.2°C (28°F) [RH = 29%]
Pressure (altimeter): 30.01 inches Hg (1016.3 mb)
[Sea-level pressure: 1016.3 mb]
Winds: variable direction winds at 6 MPH (5 knots; 2.6 m/s)
Visibility: 10 or more miles (16+ km)
Ceiling: at least 12,000 feet AGL
Clouds: sky clear below 12,000 feet AGL
Weather: no significant weather observed at this time

METAR text: KPSP 171822Z VRB03KT 10SM CLR 14/M03 A3001 RMK AO2 T01441028
Conditions at: KPSP (PALM SPRINGS , CA, US) observed 1822 UTC 17 February 2019
Temperature: 14.4°C (58°F)
Dewpoint: -2.8°C (27°F) [RH = 30%]
Pressure (altimeter): 30.01 inches Hg (1016.3 mb)
Winds: variable direction winds at 3 MPH (3 knots; 1.5 m/s)
Visibility: 10 or more miles (16+ km)
Ceiling: at least 12,000 feet AGL
Clouds: sky clear below 12,000 feet AGL
Weather: no significant weather observed at this time

METAR text: KPSP 171753Z 11008KT 10SM CLR 14/M03 A3001 RMK AO2 SLP164 T01441028 10150 20100 51014
Conditions at: KPSP (PALM SPRINGS , CA, US) observed 1753 UTC 17 February 2019
Temperature: 14.4°C (58°F)
Dewpoint: -2.8°C (27°F) [RH = 30%]
Pressure (altimeter): 30.01 inches Hg (1016.3 mb)
[Sea-level pressure: 1016.4 mb]
Winds: from the ESE (110 degrees) at 9 MPH (8 knots; 4.1 m/s)
Visibility: 10 or more miles (16+ km)
Ceiling: at least 12,000 feet AGL
Clouds: sky clear below 12,000 feet AGL
Weather: no significant weather observed at this time

METAR text: KPSP 171728Z 12011KT 10SM CLR 14/M02 A3001 RMK AO2 T01441017
Conditions at: KPSP (PALM SPRINGS , CA, US) observed 1728 UTC 17 February 2019
Temperature: 14.4°C (58°F)
Dewpoint: -1.7°C (29°F) [RH = 33%]
Pressure (altimeter): 30.01 inches Hg (1016.3 mb)
Winds: from the ESE (120 degrees) at 13 MPH (11 knots; 5.7 m/s)
Visibility: 10 or more miles (16+ km)
Ceiling: at least 12,000 feet AGL
Clouds: sky clear below 12,000 feet AGL
Weather: no significant weather observed at this time

METAR text: KPSP 171653Z 09007KT 10SM CLR 13/M01 A3001 RMK AO2 SLP163 T01331011
Conditions at: KPSP (PALM SPRINGS , CA, US) observed 1653 UTC 17 February 2019
Temperature: 13.3°C (56°F)
Dewpoint: -1.1°C (30°F) [RH = 37%]
Pressure (altimeter): 30.01 inches Hg (1016.3 mb)
[Sea-level pressure: 1016.3 mb]
Winds: from the E (90 degrees) at 8 MPH (7 knots; 3.6 m/s)
Visibility: 10 or more miles (16+ km)
Ceiling: at least 12,000 feet AGL
Clouds: sky clear below 12,000 feet AGL
Weather: no significant weather observed at this time

Forecast for: KPSP (PALM SPRINGS , CA, US)
Text: KPSP 182334Z 1900/1924 31011KT P6SM BKN080
Forecast period: 0000 to 0800 UTC 19 February 2019
Forecast type: FROM: standard forecast or significant change
Winds: from the NW (310 degrees) at 13 MPH (11 knots; 5.7 m/s)
Visibility: 6 or more miles 10+ km)
Ceiling: 8000 feet AGL
Clouds: broken clouds at 8000 feet AGL
Weather: no significant weather forecast for this period
Text: FM190800 33004KT P6SM SCT100
Forecast period: 0800 to 1900 UTC 19 February 2019
Forecast type: FROM: standard forecast or significant change
Winds: from the NNW (330 degrees) at 5 MPH (4 knots; 2.1 m/s)
Visibility: 6 or more miles 10+ km)
Ceiling: at least 12,000 feet AGL
Clouds: scattered clouds at 10000 feet AGL
Weather: no significant weather forecast for this period
Text: FM191900 36008KT P6SM SCT100
Forecast period: 1900 UTC 19 February 2019 to 0000 UTC 20 February 2019
Forecast type: FROM: standard forecast or significant change
Winds: from the N (360 degrees) at 9 MPH (8 knots; 4.1 m/s)
Visibility: 6 or more miles 10+ km)
Ceiling: at least 12,000 feet AGL
Clouds: scattered clouds at 10000 feet AGL
Weather: no significant weather forecast for this period